Overview Statistics Trail Chart Weather Telemetry Raw packets
 

This is the latest recevied weather packets stored in our database for station/object JE7UPL-13. If no packets are shown the sender has not sent any weather packets the latest 10 day(s).

<< 32 33 34 35 36 37 38 >>
Time Temp. Humidity Pressure Rain* Wind** Luminosity Snow
1787822106 24.44° C 90% 1000.4 hPa 0 mm - - -
1787821206 24.44° C 88% 1000.1 hPa 0 mm - - -
1787820306 25° C 83% 999.8 hPa 0 mm - - -
1787819406 25° C 84% 1000.1 hPa 0 mm - - -
1787818506 25° C 86% 1000.4 hPa 0 mm - - -
1787817607 25° C 85% 1000.5 hPa 0 mm - - -
1787816706 24.44° C 86% 1000.6 hPa 0 mm - - -
1787815807 24.44° C 88% 1001 hPa 0 mm - - -
1787814906 24.44° C 90% 1001.1 hPa 0 mm - - -
1787814009 25° C 88% 1000.9 hPa 0 mm - - -
1787813106 25.56° C 83% 1000.9 hPa 0 mm - - -
1787812206 25.56° C 83% 1000.8 hPa 0 mm - - -
1787811306 25.56° C 81% 1000.9 hPa 0 mm - - -
1787810407 26.67° C 74% 1000.9 hPa 0 mm - - -
1787809506 27.78° C 70% 1000.7 hPa 0 mm - - -
1787808607 27.78° C 68% 1001.2 hPa 0 mm - - -
1787807706 28.33° C 66% 1001.2 hPa 0 mm - - -
1787806806 27.78° C 65% 1001.2 hPa 0 mm - - -
1787805906 28.89° C 62% 1001.2 hPa 0 mm - - -
1787805007 28.33° C 66% 1001.3 hPa 0 mm - - -
1787804106 29.44° C 63% 1001.5 hPa 0 mm - - -
1787803206 27.78° C 70% 1001.8 hPa 0 mm - - -
1787802306 27.78° C 69% 1002.2 hPa 0 mm - - -
1787801411 27.78° C 68% 1002.2 hPa 0 mm - - -
1787800506 27.78° C 69% 1002.2 hPa 0 mm - - -

* Rain latest hour (hover to see other rain measurements)
** Current wind speed in m/s (hover to see current wind gust speed)